Terminal Aerodrome Forecast
Issued by NWS

Home | Current Version | Previous Version | Text Only | Print | Product List | Glossary Off
Versions: 1 2 3 4 5 6 7 8 9 10 11 12 13

000
FTUS43 KGRB 151100
TAFATW
TAF
KATW 151120Z 1512/1612 VRB03KT P6SM SCT250
     FM151500 12010G15KT P6SM BKN250
     FM160000 10006KT P6SM BKN200=

USA.gov is the U.S. government's official web portal to all federal, state and local government web resources and services.